sensor_id;sensor_type;location;lat;lon;timestamp;temperature;humidity
9103;DHT22;4587;51.434;6.788;2023-07-16T00:00:44;20.40;99.90
9103;DHT22;4587;51.434;6.788;2023-07-16T00:03:10;20.30;99.90
9103;DHT22;4587;51.434;6.788;2023-07-16T00:05:39;20.30;99.90
9103;DHT22;4587;51.434;6.788;2023-07-16T00:08:04;20.30;99.90
9103;DHT22;4587;51.434;6.788;2023-07-16T00:10:32;20.20;99.90
9103;DHT22;4587;51.434;6.788;2023-07-16T00:12:58;20.20;99.90
9103;DHT22;4587;51.434;6.788;2023-07-16T00:15:25;20.10;99.90
9103;DHT22;4587;51.434;6.788;2023-07-16T00:17:50;20.20;99.90
9103;DHT22;4587;51.434;6.788;2023-07-16T00:20:16;20.10;99.90
9103;DHT22;4587;51.434;6.788;2023-07-16T00:22:41;20.10;99.90
9103;DHT22;4587;51.434;6.788;2023-07-16T00:25:07;20.10;99.90
9103;DHT22;4587;51.434;6.788;2023-07-16T00:27:33;20.10;99.90
9103;DHT22;4587;51.434;6.788;2023-07-16T00:29:59;20.10;99.90
9103;DHT22;4587;51.434;6.788;2023-07-16T00:32:24;20.10;99.90
9103;DHT22;4587;51.434;6.788;2023-07-16T00:34:50;20.10;99.90
9103;DHT22;4587;51.434;6.788;2023-07-16T00:37:15;20.00;99.90
9103;DHT22;4587;51.434;6.788;2023-07-16T00:39:41;19.90;99.90
9103;DHT22;4587;51.434;6.788;2023-07-16T00:42:06;19.80;99.90
9103;DHT22;4587;51.434;6.788;2023-07-16T00:44:32;19.70;99.90
9103;DHT22;4587;51.434;6.788;2023-07-16T00:46:58;19.70;99.90
9103;DHT22;4587;51.434;6.788;2023-07-16T00:49:24;19.70;99.90
9103;DHT22;4587;51.434;6.788;2023-07-16T00:51:50;19.70;99.90
9103;DHT22;4587;51.434;6.788;2023-07-16T00:54:17;19.60;99.90
9103;DHT22;4587;51.434;6.788;2023-07-16T00:56:43;19.60;99.90
9103;DHT22;4587;51.434;6.788;2023-07-16T00:59:09;19.50;99.90
9103;DHT22;4587;51.434;6.788;2023-07-16T01:01:34;19.40;99.90
9103;DHT22;4587;51.434;6.788;2023-07-16T01:04:00;19.40;99.90
9103;DHT22;4587;51.434;6.788;2023-07-16T01:06:33;19.40;99.90
9103;DHT22;4587;51.434;6.788;2023-07-16T01:09:07;19.50;99.90
9103;DHT22;4587;51.434;6.788;2023-07-16T01:11:34;19.40;99.90
9103;DHT22;4587;51.434;6.788;2023-07-16T01:14:02;19.30;99.90
9103;DHT22;4587;51.434;6.788;2023-07-16T01:16:28;19.20;99.90
9103;DHT22;4587;51.434;6.788;2023-07-16T01:18:53;19.20;99.90
9103;DHT22;4587;51.434;6.788;2023-07-16T01:21:21;19.10;99.90
9103;DHT22;4587;51.434;6.788;2023-07-16T01:24:04;19.30;99.90
9103;DHT22;4587;51.434;6.788;2023-07-16T01:31:55;19.20;99.90
9103;DHT22;4587;51.434;6.788;2023-07-16T01:34:21;19.20;99.90
9103;DHT22;4587;51.434;6.788;2023-07-16T01:36:47;19.10;99.90
9103;DHT22;4587;51.434;6.788;2023-07-16T01:39:14;19.10;99.90
9103;DHT22;4587;51.434;6.788;2023-07-16T01:41:40;19.10;99.90
9103;DHT22;4587;51.434;6.788;2023-07-16T01:44:06;19.00;99.90
9103;DHT22;4587;51.434;6.788;2023-07-16T01:46:32;19.00;99.90
9103;DHT22;4587;51.434;6.788;2023-07-16T01:48:57;19.00;99.90
9103;DHT22;4587;51.434;6.788;2023-07-16T01:51:23;19.00;99.90
9103;DHT22;4587;51.434;6.788;2023-07-16T01:53:48;19.00;99.90
9103;DHT22;4587;51.434;6.788;2023-07-16T01:56:14;18.90;99.90
9103;DHT22;4587;51.434;6.788;2023-07-16T01:58:40;18.90;99.90
9103;DHT22;4587;51.434;6.788;2023-07-16T02:01:05;18.80;99.90
9103;DHT22;4587;51.434;6.788;2023-07-16T02:03:31;18.90;99.90
9103;DHT22;4587;51.434;6.788;2023-07-16T02:05:56;18.90;99.90
9103;DHT22;4587;51.434;6.788;2023-07-16T02:08:22;18.80;99.90
9103;DHT22;4587;51.434;6.788;2023-07-16T02:10:48;18.90;99.90
9103;DHT22;4587;51.434;6.788;2023-07-16T02:13:14;18.90;99.90
9103;DHT22;4587;51.434;6.788;2023-07-16T02:15:39;18.80;99.90
9103;DHT22;4587;51.434;6.788;2023-07-16T02:18:06;18.80;99.90
9103;DHT22;4587;51.434;6.788;2023-07-16T02:20:31;18.80;99.90
9103;DHT22;4587;51.434;6.788;2023-07-16T02:22:57;18.70;99.90
9103;DHT22;4587;51.434;6.788;2023-07-16T02:25:23;18.90;99.90
9103;DHT22;4587;51.434;6.788;2023-07-16T02:27:48;18.80;99.90
9103;DHT22;4587;51.434;6.788;2023-07-16T02:30:15;18.80;99.90
9103;DHT22;4587;51.434;6.788;2023-07-16T02:32:40;18.90;99.90
9103;DHT22;4587;51.434;6.788;2023-07-16T02:35:07;18.90;99.90
9103;DHT22;4587;51.434;6.788;2023-07-16T02:37:32;18.80;99.90
9103;DHT22;4587;51.434;6.788;2023-07-16T02:39:58;18.80;99.90
9103;DHT22;4587;51.434;6.788;2023-07-16T02:42:24;18.90;99.90
9103;DHT22;4587;51.434;6.788;2023-07-16T02:44:50;18.90;99.90
9103;DHT22;4587;51.434;6.788;2023-07-16T02:47:15;18.90;99.90
9103;DHT22;4587;51.434;6.788;2023-07-16T02:49:41;18.90;99.90
9103;DHT22;4587;51.434;6.788;2023-07-16T02:52:07;18.90;99.90
9103;DHT22;4587;51.434;6.788;2023-07-16T02:54:33;18.80;99.90
9103;DHT22;4587;51.434;6.788;2023-07-16T02:57:00;18.80;99.90
9103;DHT22;4587;51.434;6.788;2023-07-16T02:59:26;18.70;99.90
9103;DHT22;4587;51.434;6.788;2023-07-16T03:01:51;18.70;99.90
9103;DHT22;4587;51.434;6.788;2023-07-16T03:04:17;18.70;99.90
9103;DHT22;4587;51.434;6.788;2023-07-16T03:06:43;18.60;99.90
9103;DHT22;4587;51.434;6.788;2023-07-16T03:09:08;18.60;99.90
9103;DHT22;4587;51.434;6.788;2023-07-16T03:11:34;18.60;99.90
9103;DHT22;4587;51.434;6.788;2023-07-16T03:13:59;18.60;99.90
9103;DHT22;4587;51.434;6.788;2023-07-16T03:16:25;18.50;99.90
9103;DHT22;4587;51.434;6.788;2023-07-16T03:18:51;18.60;99.90
9103;DHT22;4587;51.434;6.788;2023-07-16T03:21:16;18.70;99.90
9103;DHT22;4587;51.434;6.788;2023-07-16T03:23:42;18.60;99.90
9103;DHT22;4587;51.434;6.788;2023-07-16T03:26:07;18.60;99.90
9103;DHT22;4587;51.434;6.788;2023-07-16T03:28:33;18.60;99.90
9103;DHT22;4587;51.434;6.788;2023-07-16T03:30:58;18.60;99.90
9103;DHT22;4587;51.434;6.788;2023-07-16T03:33:24;18.60;99.90
9103;DHT22;4587;51.434;6.788;2023-07-16T03:35:50;18.50;99.90
9103;DHT22;4587;51.434;6.788;2023-07-16T03:38:15;18.50;99.90
9103;DHT22;4587;51.434;6.788;2023-07-16T03:40:47;18.50;99.90
9103;DHT22;4587;51.434;6.788;2023-07-16T03:43:14;18.50;99.90
9103;DHT22;4587;51.434;6.788;2023-07-16T03:45:39;18.50;99.90
9103;DHT22;4587;51.434;6.788;2023-07-16T03:48:05;18.50;99.90
9103;DHT22;4587;51.434;6.788;2023-07-16T03:50:31;18.50;99.90
9103;DHT22;4587;51.434;6.788;2023-07-16T03:52:56;18.40;99.90
9103;DHT22;4587;51.434;6.788;2023-07-16T03:55:22;18.40;99.90
9103;DHT22;4587;51.434;6.788;2023-07-16T03:57:47;18.40;99.90
9103;DHT22;4587;51.434;6.788;2023-07-16T04:00:13;18.50;99.90
9103;DHT22;4587;51.434;6.788;2023-07-16T04:02:39;18.50;99.90
9103;DHT22;4587;51.434;6.788;2023-07-16T04:05:05;18.40;99.90
9103;DHT22;4587;51.434;6.788;2023-07-16T04:07:31;18.50;99.90
9103;DHT22;4587;51.434;6.788;2023-07-16T04:09:56;18.50;99.90
9103;DHT22;4587;51.434;6.788;2023-07-16T04:12:22;18.50;99.90
9103;DHT22;4587;51.434;6.788;2023-07-16T04:14:47;18.50;99.90
9103;DHT22;4587;51.434;6.788;2023-07-16T04:17:13;18.50;99.90
9103;DHT22;4587;51.434;6.788;2023-07-16T04:19:39;18.40;99.90
9103;DHT22;4587;51.434;6.788;2023-07-16T04:22:04;18.40;99.90
9103;DHT22;4587;51.434;6.788;2023-07-16T04:24:30;18.40;99.90
9103;DHT22;4587;51.434;6.788;2023-07-16T04:26:57;18.50;99.90
9103;DHT22;4587;51.434;6.788;2023-07-16T04:29:23;18.60;99.90
9103;DHT22;4587;51.434;6.788;2023-07-16T04:31:48;18.50;99.90
9103;DHT22;4587;51.434;6.788;2023-07-16T04:34:14;18.50;99.90
9103;DHT22;4587;51.434;6.788;2023-07-16T04:36:39;18.60;99.90
9103;DHT22;4587;51.434;6.788;2023-07-16T04:39:05;18.70;99.90
9103;DHT22;4587;51.434;6.788;2023-07-16T04:41:30;18.70;99.90
9103;DHT22;4587;51.434;6.788;2023-07-16T04:43:56;18.70;99.90
9103;DHT22;4587;51.434;6.788;2023-07-16T04:46:22;18.60;99.90
9103;DHT22;4587;51.434;6.788;2023-07-16T04:48:47;18.60;99.90
9103;DHT22;4587;51.434;6.788;2023-07-16T04:51:13;18.70;99.90
9103;DHT22;4587;51.434;6.788;2023-07-16T04:53:39;18.70;99.90
9103;DHT22;4587;51.434;6.788;2023-07-16T04:56:04;18.60;99.90
9103;DHT22;4587;51.434;6.788;2023-07-16T04:58:37;18.70;99.90
9103;DHT22;4587;51.434;6.788;2023-07-16T05:01:03;18.70;99.90
9103;DHT22;4587;51.434;6.788;2023-07-16T05:03:28;18.70;99.90
9103;DHT22;4587;51.434;6.788;2023-07-16T05:05:54;18.70;99.90
9103;DHT22;4587;51.434;6.788;2023-07-16T05:08:19;18.70;99.90
9103;DHT22;4587;51.434;6.788;2023-07-16T05:10:45;18.80;99.90
9103;DHT22;4587;51.434;6.788;2023-07-16T05:13:11;18.90;99.90
9103;DHT22;4587;51.434;6.788;2023-07-16T05:15:37;18.80;99.90
9103;DHT22;4587;51.434;6.788;2023-07-16T05:18:03;18.80;99.90
9103;DHT22;4587;51.434;6.788;2023-07-16T05:20:28;18.90;99.90
9103;DHT22;4587;51.434;6.788;2023-07-16T05:22:54;18.90;99.90
9103;DHT22;4587;51.434;6.788;2023-07-16T05:25:20;19.00;99.90
9103;DHT22;4587;51.434;6.788;2023-07-16T05:27:45;19.00;99.90
9103;DHT22;4587;51.434;6.788;2023-07-16T05:30:11;19.10;99.90
9103;DHT22;4587;51.434;6.788;2023-07-16T05:32:36;19.10;99.90
9103;DHT22;4587;51.434;6.788;2023-07-16T05:35:02;19.20;99.90
9103;DHT22;4587;51.434;6.788;2023-07-16T05:37:28;19.30;99.90
9103;DHT22;4587;51.434;6.788;2023-07-16T05:39:53;19.40;99.90
9103;DHT22;4587;51.434;6.788;2023-07-16T05:42:19;19.50;99.90
9103;DHT22;4587;51.434;6.788;2023-07-16T05:44:47;19.60;99.90
9103;DHT22;4587;51.434;6.788;2023-07-16T05:47:13;19.70;99.90
9103;DHT22;4587;51.434;6.788;2023-07-16T05:49:39;19.70;99.90
9103;DHT22;4587;51.434;6.788;2023-07-16T05:52:05;19.80;99.90
9103;DHT22;4587;51.434;6.788;2023-07-16T05:54:30;19.90;99.90
9103;DHT22;4587;51.434;6.788;2023-07-16T05:56:57;20.00;99.90
9103;DHT22;4587;51.434;6.788;2023-07-16T05:59:22;20.10;99.90
9103;DHT22;4587;51.434;6.788;2023-07-16T06:01:48;20.10;99.90
9103;DHT22;4587;51.434;6.788;2023-07-16T06:04:14;20.10;99.90
9103;DHT22;4587;51.434;6.788;2023-07-16T06:06:39;20.10;99.90
9103;DHT22;4587;51.434;6.788;2023-07-16T06:09:05;20.00;99.90
9103;DHT22;4587;51.434;6.788;2023-07-16T06:11:30;20.10;99.90
9103;DHT22;4587;51.434;6.788;2023-07-16T06:13:56;20.20;99.90
9103;DHT22;4587;51.434;6.788;2023-07-16T06:16:21;20.10;99.90
9103;DHT22;4587;51.434;6.788;2023-07-16T06:18:47;20.10;99.90
9103;DHT22;4587;51.434;6.788;2023-07-16T06:21:13;20.10;99.90
9103;DHT22;4587;51.434;6.788;2023-07-16T06:23:40;20.10;99.90
9103;DHT22;4587;51.434;6.788;2023-07-16T06:26:05;20.20;99.90
9103;DHT22;4587;51.434;6.788;2023-07-16T06:28:31;20.20;99.90
9103;DHT22;4587;51.434;6.788;2023-07-16T06:30:57;20.20;99.90
9103;DHT22;4587;51.434;6.788;2023-07-16T06:33:23;20.20;99.90
9103;DHT22;4587;51.434;6.788;2023-07-16T06:35:48;20.40;99.90
9103;DHT22;4587;51.434;6.788;2023-07-16T06:38:14;20.50;99.90
9103;DHT22;4587;51.434;6.788;2023-07-16T06:40:45;21.00;99.90
9103;DHT22;4587;51.434;6.788;2023-07-16T06:43:12;21.60;99.90
9103;DHT22;4587;51.434;6.788;2023-07-16T06:45:37;22.40;99.90
9103;DHT22;4587;51.434;6.788;2023-07-16T06:48:03;23.60;99.90
9103;DHT22;4587;51.434;6.788;2023-07-16T06:50:28;24.90;99.90
9103;DHT22;4587;51.434;6.788;2023-07-16T06:52:54;26.20;99.90
9103;DHT22;4587;51.434;6.788;2023-07-16T06:55:19;27.40;98.30
9103;DHT22;4587;51.434;6.788;2023-07-16T06:57:45;28.30;95.40
9103;DHT22;4587;51.434;6.788;2023-07-16T07:00:11;29.30;92.60
9103;DHT22;4587;51.434;6.788;2023-07-16T07:02:36;29.50;90.50
9103;DHT22;4587;51.434;6.788;2023-07-16T07:05:02;29.80;87.30
9103;DHT22;4587;51.434;6.788;2023-07-16T07:07:28;30.20;85.30
9103;DHT22;4587;51.434;6.788;2023-07-16T07:09:53;30.70;82.50
9103;DHT22;4587;51.434;6.788;2023-07-16T07:12:19;30.70;80.30
9103;DHT22;4587;51.434;6.788;2023-07-16T07:14:46;30.80;78.20
9103;DHT22;4587;51.434;6.788;2023-07-16T07:17:12;30.60;77.50
9103;DHT22;4587;51.434;6.788;2023-07-16T07:19:38;30.60;76.30
9103;DHT22;4587;51.434;6.788;2023-07-16T07:22:03;30.60;76.40
9103;DHT22;4587;51.434;6.788;2023-07-16T07:24:29;30.50;75.80
9103;DHT22;4587;51.434;6.788;2023-07-16T07:26:54;30.80;76.00
9103;DHT22;4587;51.434;6.788;2023-07-16T07:29:20;31.20;73.90
9103;DHT22;4587;51.434;6.788;2023-07-16T07:31:45;31.70;71.70
9103;DHT22;4587;51.434;6.788;2023-07-16T07:34:11;31.90;69.60
9103;DHT22;4587;51.434;6.788;2023-07-16T07:36:36;31.80;69.10
9103;DHT22;4587;51.434;6.788;2023-07-16T07:39:02;32.20;69.20
9103;DHT22;4587;51.434;6.788;2023-07-16T07:41:27;32.30;67.90
9103;DHT22;4587;51.434;6.788;2023-07-16T07:43:53;32.40;67.00
9103;DHT22;4587;51.434;6.788;2023-07-16T07:46:19;32.60;66.70
9103;DHT22;4587;51.434;6.788;2023-07-16T07:48:44;32.90;66.10
9103;DHT22;4587;51.434;6.788;2023-07-16T07:51:10;33.10;64.20
9103;DHT22;4587;51.434;6.788;2023-07-16T07:53:35;33.00;63.20
9103;DHT22;4587;51.434;6.788;2023-07-16T07:56:01;32.10;63.80
9103;DHT22;4587;51.434;6.788;2023-07-16T07:58:26;32.20;63.40
9103;DHT22;4587;51.434;6.788;2023-07-16T08:00:52;31.80;64.90
9103;DHT22;4587;51.434;6.788;2023-07-16T08:03:17;31.30;65.50
9103;DHT22;4587;51.434;6.788;2023-07-16T08:05:43;31.30;66.50
9103;DHT22;4587;51.434;6.788;2023-07-16T08:08:08;31.70;66.70
9103;DHT22;4587;51.434;6.788;2023-07-16T08:10:34;32.30;64.10
9103;DHT22;4587;51.434;6.788;2023-07-16T08:13:00;32.20;63.80
9103;DHT22;4587;51.434;6.788;2023-07-16T08:15:25;31.60;64.90
9103;DHT22;4587;51.434;6.788;2023-07-16T08:17:51;30.60;65.80
9103;DHT22;4587;51.434;6.788;2023-07-16T08:20:16;29.50;67.80
9103;DHT22;4587;51.434;6.788;2023-07-16T08:22:42;28.30;70.90
9103;DHT22;4587;51.434;6.788;2023-07-16T08:25:08;27.60;73.70
9103;DHT22;4587;51.434;6.788;2023-07-16T08:27:34;27.00;76.80
9103;DHT22;4587;51.434;6.788;2023-07-16T08:30:00;26.60;81.20
9103;DHT22;4587;51.434;6.788;2023-07-16T08:32:25;26.20;82.80
9103;DHT22;4587;51.434;6.788;2023-07-16T08:34:51;26.10;87.10
9103;DHT22;4587;51.434;6.788;2023-07-16T08:37:16;25.80;88.90
9103;DHT22;4587;51.434;6.788;2023-07-16T08:39:42;25.60;90.80
9103;DHT22;4587;51.434;6.788;2023-07-16T08:42:09;25.40;91.90
9103;DHT22;4587;51.434;6.788;2023-07-16T08:44:37;25.30;93.00
9103;DHT22;4587;51.434;6.788;2023-07-16T08:47:03;25.20;93.30
9103;DHT22;4587;51.434;6.788;2023-07-16T08:49:30;25.00;93.30
9103;DHT22;4587;51.434;6.788;2023-07-16T08:51:55;25.00;94.30
9103;DHT22;4587;51.434;6.788;2023-07-16T08:54:22;24.80;94.70
9103;DHT22;4587;51.434;6.788;2023-07-16T08:56:47;24.90;96.10
9103;DHT22;4587;51.434;6.788;2023-07-16T08:59:15;24.80;95.50
9103;DHT22;4587;51.434;6.788;2023-07-16T09:01:40;24.80;95.70
9103;DHT22;4587;51.434;6.788;2023-07-16T09:04:06;24.70;96.60
9103;DHT22;4587;51.434;6.788;2023-07-16T09:06:32;24.70;96.80
9103;DHT22;4587;51.434;6.788;2023-07-16T09:08:58;24.80;95.60
9103;DHT22;4587;51.434;6.788;2023-07-16T09:11:23;24.70;95.90
9103;DHT22;4587;51.434;6.788;2023-07-16T09:13:49;24.70;96.20
9103;DHT22;4587;51.434;6.788;2023-07-16T09:16:17;24.60;96.60
9103;DHT22;4587;51.434;6.788;2023-07-16T09:18:43;24.60;97.00
9103;DHT22;4587;51.434;6.788;2023-07-16T09:21:09;24.70;97.50
9103;DHT22;4587;51.434;6.788;2023-07-16T09:23:35;24.70;96.70
9103;DHT22;4587;51.434;6.788;2023-07-16T09:26:01;24.70;97.10
9103;DHT22;4587;51.434;6.788;2023-07-16T09:28:30;24.70;97.30
9103;DHT22;4587;51.434;6.788;2023-07-16T09:31:02;24.50;96.70
9103;DHT22;4587;51.434;6.788;2023-07-16T09:33:28;24.50;96.80
9103;DHT22;4587;51.434;6.788;2023-07-16T09:35:54;24.50;97.40
9103;DHT22;4587;51.434;6.788;2023-07-16T09:38:19;24.50;97.90
9103;DHT22;4587;51.434;6.788;2023-07-16T09:40:46;24.60;98.00
9103;DHT22;4587;51.434;6.788;2023-07-16T09:43:12;24.60;97.90
9103;DHT22;4587;51.434;6.788;2023-07-16T09:45:38;24.60;98.30
9103;DHT22;4587;51.434;6.788;2023-07-16T09:48:04;24.70;98.10
9103;DHT22;4587;51.434;6.788;2023-07-16T09:50:32;24.70;97.50
9103;DHT22;4587;51.434;6.788;2023-07-16T09:52:59;24.60;97.10
9103;DHT22;4587;51.434;6.788;2023-07-16T09:55:25;24.40;97.90
9103;DHT22;4587;51.434;6.788;2023-07-16T09:57:56;24.40;98.40
9103;DHT22;4587;51.434;6.788;2023-07-16T10:00:23;24.50;98.90
9103;DHT22;4587;51.434;6.788;2023-07-16T10:02:51;24.50;97.70
9103;DHT22;4587;51.434;6.788;2023-07-16T10:05:27;24.50;99.20
9103;DHT22;4587;51.434;6.788;2023-07-16T10:07:56;24.50;99.10
9103;DHT22;4587;51.434;6.788;2023-07-16T10:10:48;24.80;98.20
9103;DHT22;4587;51.434;6.788;2023-07-16T10:13:15;24.70;97.20
9103;DHT22;4587;51.434;6.788;2023-07-16T10:15:58;24.50;97.60
9103;DHT22;4587;51.434;6.788;2023-07-16T10:18:27;24.70;98.10
9103;DHT22;4587;51.434;6.788;2023-07-16T10:21:00;24.70;97.80
9103;DHT22;4587;51.434;6.788;2023-07-16T10:23:42;24.80;97.90
9103;DHT22;4587;51.434;6.788;2023-07-16T10:26:12;24.70;97.60
9103;DHT22;4587;51.434;6.788;2023-07-16T10:28:38;24.70;98.20
9103;DHT22;4587;51.434;6.788;2023-07-16T10:31:03;24.60;98.20
9103;DHT22;4587;51.434;6.788;2023-07-16T10:33:29;24.70;98.70
9103;DHT22;4587;51.434;6.788;2023-07-16T10:35:57;24.70;99.40
9103;DHT22;4587;51.434;6.788;2023-07-16T10:38:26;24.80;98.20
9103;DHT22;4587;51.434;6.788;2023-07-16T10:40:52;24.90;97.80
9103;DHT22;4587;51.434;6.788;2023-07-16T10:43:18;25.00;97.50
9103;DHT22;4587;51.434;6.788;2023-07-16T10:45:43;25.00;97.90
9103;DHT22;4587;51.434;6.788;2023-07-16T10:48:12;25.00;98.20
9103;DHT22;4587;51.434;6.788;2023-07-16T10:50:38;25.00;98.00
9103;DHT22;4587;51.434;6.788;2023-07-16T10:53:03;24.90;97.50
9103;DHT22;4587;51.434;6.788;2023-07-16T10:55:30;24.80;97.70
9103;DHT22;4587;51.434;6.788;2023-07-16T10:57:57;24.70;98.50
9103;DHT22;4587;51.434;6.788;2023-07-16T11:00:23;24.70;98.10
9103;DHT22;4587;51.434;6.788;2023-07-16T11:02:52;24.50;97.70
9103;DHT22;4587;51.434;6.788;2023-07-16T11:05:18;24.50;98.00
9103;DHT22;4587;51.434;6.788;2023-07-16T11:07:45;24.50;98.50
9103;DHT22;4587;51.434;6.788;2023-07-16T11:10:11;24.60;98.20
9103;DHT22;4587;51.434;6.788;2023-07-16T11:12:37;24.60;97.70
9103;DHT22;4587;51.434;6.788;2023-07-16T11:15:03;24.60;97.60
9103;DHT22;4587;51.434;6.788;2023-07-16T11:17:29;24.50;96.90
9103;DHT22;4587;51.434;6.788;2023-07-16T11:19:55;24.50;97.40
9103;DHT22;4587;51.434;6.788;2023-07-16T11:22:25;24.50;96.90
9103;DHT22;4587;51.434;6.788;2023-07-16T11:24:52;24.40;97.30
9103;DHT22;4587;51.434;6.788;2023-07-16T11:27:21;24.30;97.00
9103;DHT22;4587;51.434;6.788;2023-07-16T11:29:48;24.20;97.10
9103;DHT22;4587;51.434;6.788;2023-07-16T11:32:35;24.10;97.40
9103;DHT22;4587;51.434;6.788;2023-07-16T11:35:02;24.10;97.60
9103;DHT22;4587;51.434;6.788;2023-07-16T11:37:30;24.00;97.50
9103;DHT22;4587;51.434;6.788;2023-07-16T11:40:06;24.00;98.00
9103;DHT22;4587;51.434;6.788;2023-07-16T11:42:39;24.10;98.20
9103;DHT22;4587;51.434;6.788;2023-07-16T11:45:24;24.10;98.50
9103;DHT22;4587;51.434;6.788;2023-07-16T11:47:53;24.20;98.40
9103;DHT22;4587;51.434;6.788;2023-07-16T11:50:19;24.20;97.60
9103;DHT22;4587;51.434;6.788;2023-07-16T11:52:56;24.20;97.60
9103;DHT22;4587;51.434;6.788;2023-07-16T11:55:22;24.30;97.70
9103;DHT22;4587;51.434;6.788;2023-07-16T11:57:48;24.30;97.40
9103;DHT22;4587;51.434;6.788;2023-07-16T12:00:13;24.20;97.80
9103;DHT22;4587;51.434;6.788;2023-07-16T12:02:39;24.20;98.10
9103;DHT22;4587;51.434;6.788;2023-07-16T12:05:05;24.20;97.80
9103;DHT22;4587;51.434;6.788;2023-07-16T12:07:36;24.30;98.00
9103;DHT22;4587;51.434;6.788;2023-07-16T12:10:03;24.30;98.20
9103;DHT22;4587;51.434;6.788;2023-07-16T12:12:29;24.40;98.70
9103;DHT22;4587;51.434;6.788;2023-07-16T12:14:55;24.40;98.70
9103;DHT22;4587;51.434;6.788;2023-07-16T12:17:20;24.40;98.70
9103;DHT22;4587;51.434;6.788;2023-07-16T12:19:46;24.30;98.90
9103;DHT22;4587;51.434;6.788;2023-07-16T12:22:12;24.50;98.90
9103;DHT22;4587;51.434;6.788;2023-07-16T12:24:37;24.50;98.90
9103;DHT22;4587;51.434;6.788;2023-07-16T12:27:03;24.70;98.70
9103;DHT22;4587;51.434;6.788;2023-07-16T12:29:29;24.70;98.90
9103;DHT22;4587;51.434;6.788;2023-07-16T12:31:54;24.60;97.80
9103;DHT22;4587;51.434;6.788;2023-07-16T12:34:20;24.50;98.00
9103;DHT22;4587;51.434;6.788;2023-07-16T12:36:45;24.40;98.10
9103;DHT22;4587;51.434;6.788;2023-07-16T12:39:11;24.40;98.90
9103;DHT22;4587;51.434;6.788;2023-07-16T12:41:36;24.50;98.40
9103;DHT22;4587;51.434;6.788;2023-07-16T12:44:02;24.50;98.10
9103;DHT22;4587;51.434;6.788;2023-07-16T12:46:27;24.70;98.20
9103;DHT22;4587;51.434;6.788;2023-07-16T12:48:53;24.80;98.10
9103;DHT22;4587;51.434;6.788;2023-07-16T12:51:18;24.90;98.00
9103;DHT22;4587;51.434;6.788;2023-07-16T12:53:44;24.90;98.10
9103;DHT22;4587;51.434;6.788;2023-07-16T12:56:10;25.00;97.80
9103;DHT22;4587;51.434;6.788;2023-07-16T12:58:35;25.10;97.20
9103;DHT22;4587;51.434;6.788;2023-07-16T13:01:01;25.10;96.90
9103;DHT22;4587;51.434;6.788;2023-07-16T13:03:27;25.10;96.60
9103;DHT22;4587;51.434;6.788;2023-07-16T13:05:53;25.20;96.80
9103;DHT22;4587;51.434;6.788;2023-07-16T13:08:19;25.30;96.60
9103;DHT22;4587;51.434;6.788;2023-07-16T13:10:45;25.30;96.50
9103;DHT22;4587;51.434;6.788;2023-07-16T13:13:10;25.30;96.80
9103;DHT22;4587;51.434;6.788;2023-07-16T13:15:36;25.30;97.70
9103;DHT22;4587;51.434;6.788;2023-07-16T13:18:01;25.40;98.60
9103;DHT22;4587;51.434;6.788;2023-07-16T13:20:27;25.50;97.20
9103;DHT22;4587;51.434;6.788;2023-07-16T13:22:55;25.50;97.10
9103;DHT22;4587;51.434;6.788;2023-07-16T13:25:20;25.40;97.00
9103;DHT22;4587;51.434;6.788;2023-07-16T13:27:46;25.30;97.00
9103;DHT22;4587;51.434;6.788;2023-07-16T13:30:13;25.30;97.30
9103;DHT22;4587;51.434;6.788;2023-07-16T13:32:39;25.40;97.00
9103;DHT22;4587;51.434;6.788;2023-07-16T13:35:04;25.40;96.90
9103;DHT22;4587;51.434;6.788;2023-07-16T13:37:30;25.40;96.80
9103;DHT22;4587;51.434;6.788;2023-07-16T13:39:55;25.50;96.30
9103;DHT22;4587;51.434;6.788;2023-07-16T13:42:21;25.40;96.30
9103;DHT22;4587;51.434;6.788;2023-07-16T13:44:47;25.50;96.30
9103;DHT22;4587;51.434;6.788;2023-07-16T13:47:12;25.50;95.00
9103;DHT22;4587;51.434;6.788;2023-07-16T13:49:38;25.60;95.60
9103;DHT22;4587;51.434;6.788;2023-07-16T13:52:03;25.60;95.60
9103;DHT22;4587;51.434;6.788;2023-07-16T13:54:29;25.80;94.70
9103;DHT22;4587;51.434;6.788;2023-07-16T13:56:54;25.90;94.20
9103;DHT22;4587;51.434;6.788;2023-07-16T13:59:20;26.00;93.80
9103;DHT22;4587;51.434;6.788;2023-07-16T14:01:45;26.00;93.30
9103;DHT22;4587;51.434;6.788;2023-07-16T14:04:12;26.00;92.50
9103;DHT22;4587;51.434;6.788;2023-07-16T14:06:38;25.90;92.50
9103;DHT22;4587;51.434;6.788;2023-07-16T14:09:03;25.80;91.40
9103;DHT22;4587;51.434;6.788;2023-07-16T14:11:30;25.60;91.40
9103;DHT22;4587;51.434;6.788;2023-07-16T14:13:56;25.60;91.50
9103;DHT22;4587;51.434;6.788;2023-07-16T14:16:21;25.60;91.80
9103;DHT22;4587;51.434;6.788;2023-07-16T14:18:52;25.70;92.30
9103;DHT22;4587;51.434;6.788;2023-07-16T14:21:18;25.80;92.40
9103;DHT22;4587;51.434;6.788;2023-07-16T14:23:43;25.90;91.90
9103;DHT22;4587;51.434;6.788;2023-07-16T14:26:09;26.10;91.10
9103;DHT22;4587;51.434;6.788;2023-07-16T14:28:35;26.10;90.70
9103;DHT22;4587;51.434;6.788;2023-07-16T14:31:00;26.10;90.80
9103;DHT22;4587;51.434;6.788;2023-07-16T14:33:26;26.00;90.40
9103;DHT22;4587;51.434;6.788;2023-07-16T14:35:53;25.80;90.40
9103;DHT22;4587;51.434;6.788;2023-07-16T14:38:18;25.70;90.20
9103;DHT22;4587;51.434;6.788;2023-07-16T14:40:44;25.60;90.10
9103;DHT22;4587;51.434;6.788;2023-07-16T14:43:09;25.70;90.00
9103;DHT22;4587;51.434;6.788;2023-07-16T14:45:35;26.00;90.10
9103;DHT22;4587;51.434;6.788;2023-07-16T14:48:01;26.20;86.40
9103;DHT22;4587;51.434;6.788;2023-07-16T14:50:26;26.30;85.40
9103;DHT22;4587;51.434;6.788;2023-07-16T14:52:53;26.50;85.20
9103;DHT22;4587;51.434;6.788;2023-07-16T14:55:19;26.50;83.70
9103;DHT22;4587;51.434;6.788;2023-07-16T14:57:44;26.40;83.70
9103;DHT22;4587;51.434;6.788;2023-07-16T15:00:11;26.30;84.40
9103;DHT22;4587;51.434;6.788;2023-07-16T15:02:37;26.20;85.10
9103;DHT22;4587;51.434;6.788;2023-07-16T15:05:03;26.10;85.80
9103;DHT22;4587;51.434;6.788;2023-07-16T15:07:30;26.10;85.70
9103;DHT22;4587;51.434;6.788;2023-07-16T15:09:55;26.00;85.10
9103;DHT22;4587;51.434;6.788;2023-07-16T15:12:21;26.00;85.80
9103;DHT22;4587;51.434;6.788;2023-07-16T15:14:46;26.10;87.50
9103;DHT22;4587;51.434;6.788;2023-07-16T15:17:12;26.00;86.60
9103;DHT22;4587;51.434;6.788;2023-07-16T15:19:39;26.00;87.60
9103;DHT22;4587;51.434;6.788;2023-07-16T15:22:06;26.00;87.70
9103;DHT22;4587;51.434;6.788;2023-07-16T15:24:31;25.90;86.90
9103;DHT22;4587;51.434;6.788;2023-07-16T15:26:57;25.80;86.90
9103;DHT22;4587;51.434;6.788;2023-07-16T15:29:22;25.80;88.60
9103;DHT22;4587;51.434;6.788;2023-07-16T15:31:48;25.80;87.90
9103;DHT22;4587;51.434;6.788;2023-07-16T15:34:13;25.70;89.00
9103;DHT22;4587;51.434;6.788;2023-07-16T15:36:39;25.70;89.80
9103;DHT22;4587;51.434;6.788;2023-07-16T15:39:06;25.80;89.40
9103;DHT22;4587;51.434;6.788;2023-07-16T15:41:31;25.90;89.60
9103;DHT22;4587;51.434;6.788;2023-07-16T15:43:57;26.10;89.40
9103;DHT22;4587;51.434;6.788;2023-07-16T15:46:22;26.10;88.50
9103;DHT22;4587;51.434;6.788;2023-07-16T15:48:48;26.10;88.80
9103;DHT22;4587;51.434;6.788;2023-07-16T15:51:14;25.90;90.10
9103;DHT22;4587;51.434;6.788;2023-07-16T15:53:41;25.80;90.00
9103;DHT22;4587;51.434;6.788;2023-07-16T15:56:09;25.70;90.30
9103;DHT22;4587;51.434;6.788;2023-07-16T15:58:36;25.50;90.20
9103;DHT22;4587;51.434;6.788;2023-07-16T16:01:01;25.50;90.10